地図

経路データ

SID SEASON NUMBER BASIN SUBBASIN NAME ISO_TIME NATURE LAT LON WMO_WIND WMO_PRES WMO_AGENCY TRACK_TYPE DIST2LAND LANDFALL IFLAG USA_AGENCY USA_ATCF_ID USA_LAT USA_LON USA_RECORD USA_STATUS USA_WIND USA_PRES USA_SSHS USA_R34_NE USA_R34_SE USA_R34_SW USA_R34_NW USA_R50_NE USA_R50_SE USA_R50_SW USA_R50_NW USA_R64_NE USA_R64_SE USA_R64_SW USA_R64_NW USA_POCI USA_ROCI USA_RMW USA_EYE TOKYO_LAT TOKYO_LON TOKYO_GRADE TOKYO_WIND TOKYO_PRES TOKYO_R50_DIR TOKYO_R50_LONG TOKYO_R50_SHORT TOKYO_R30_DIR TOKYO_R30_LONG TOKYO_R30_SHORT TOKYO_LAND CMA_LAT CMA_LON CMA_CAT CMA_WIND CMA_PRES HKO_LAT HKO_LON HKO_CAT HKO_WIND HKO_PRES NEWDELHI_LAT NEWDELHI_LON NEWDELHI_GRADE NEWDELHI_WIND NEWDELHI_PRES NEWDELHI_CI NEWDELHI_DP NEWDELHI_POCI REUNION_LAT REUNION_LON REUNION_TYPE REUNION_WIND REUNION_PRES REUNION_TNUM REUNION_CI REUNION_RMW REUNION_R34_NE REUNION_R34_SE REUNION_R34_SW REUNION_R34_NW REUNION_R50_NE REUNION_R50_SE REUNION_R50_SW REUNION_R50_NW REUNION_R64_NE REUNION_R64_SE REUNION_R64_SW REUNION_R64_NW BOM_LAT BOM_LON BOM_TYPE BOM_WIND BOM_PRES BOM_TNUM BOM_CI BOM_RMW BOM_R34_NE BOM_R34_SE BOM_R34_SW BOM_R34_NW BOM_R50_NE BOM_R50_SE BOM_R50_SW BOM_R50_NW BOM_R64_NE BOM_R64_SE BOM_R64_SW BOM_R64_NW BOM_ROCI BOM_POCI BOM_EYE BOM_POS_METHOD BOM_PRES_METHOD NADI_LAT NADI_LON NADI_CAT NADI_WIND NADI_PRES WELLINGTON_LAT WELLINGTON_LON WELLINGTON_WIND WELLINGTON_PRES DS824_LAT DS824_LON DS824_STAGE DS824_WIND DS824_PRES TD9636_LAT TD9636_LON TD9636_STAGE TD9636_WIND TD9636_PRES TD9635_LAT TD9635_LON TD9635_WIND TD9635_PRES TD9635_ROCI NEUMANN_LAT NEUMANN_LON NEUMANN_CLASS NEUMANN_WIND NEUMANN_PRES MLC_LAT MLC_LON MLC_CLASS MLC_WIND MLC_PRES USA_GUST BOM_GUST BOM_GUST_PER REUNION_GUST REUNION_GUST_PER USA_SEAHGT USA_SEARAD_NE USA_SEARAD_SE USA_SEARAD_SW USA_SEARAD_NW STORM_SPEED STORM_DIR
1955001S13163 1955 2 SP MM NOT_NAMED 1955-01-01 00:00:00 TS -13.0000 162.600 main 248 239 O_________O___ jtwc_sh SH061955 -13.0000 162.600 -1 -13.0000 162.600 4 7 65
1955001S13163 1955 2 SP MM NOT_NAMED 1955-01-01 03:00:00 TS -12.8442 162.942 main 233 233 P_________P___ SH061955 -12.8326 162.955 -1 -12.8672 162.916 4 7 67
1955001S13163 1955 2 SP MM NOT_NAMED 1955-01-01 06:00:00 TS -12.7158 163.282 main 239 239 O_________P___ jtwc_sh SH061955 -12.7000 163.300 -1 -12.7474 163.246 4 7 73
1955001S13163 1955 2 SP MM NOT_NAMED 1955-01-01 09:00:00 TS -12.6362 163.624 main 246 246 P_________P___ SH061955 -12.6274 163.635 -1 -12.6539 163.602 4 7 81
1955001S13163 1955 2 SP MM NOT_NAMED 1955-01-01 12:00:00 TS -12.6000 164.000 main 273 273 O_________O___ jtwc_sh SH061955 -12.6000 164.000 -1 -12.6000 164.000 4 8 87
1955001S13163 1955 2 SP MM NOT_NAMED 1955-01-01 15:00:00 TS -12.5878 164.438 main 304 298 P_________P___ SH061955 -12.5850 164.435 -1 -12.5934 164.445 4 9 90
1955001S13163 1955 2 SP MM NOT_NAMED 1955-01-01 18:00:00 TS -12.6068 164.905 main 298 258 O_________P___ jtwc_sh SH061955 -12.6000 164.900 -1 -12.6204 164.915 4 9 94
1955001S13163 1955 2 SP MM NOT_NAMED 1955-01-01 21:00:00 TS -12.6541 165.374 main 258 253 P_________P___ SH061955 -12.6500 165.372 -1 -12.6621 165.377 4 6 98
1955001S13163 1955 2 SP MM NOT_NAMED 1955-01-02 00:00:00 TS -12.6923 165.500 main 253 248 O________OO___ jtwc_sh SH061955 -12.7000 165.800 -1 -12.6000 161.900 TC 30 1000 -12.7000 165.800 4 2 100
1955001S13163 1955 2 SP MM NOT_NAMED 1955-01-02 03:00:00 TS -12.6945 165.598 main 248 244 P________PP___ SH061955 -12.7074 166.123 -1 -12.6435 162.544 TC -12.7027 166.143 4 2 90
1955001S13163 1955 2 SP MM NOT_NAMED 1955-01-02 06:00:00 TS -12.6917 165.728 main 244 236 O________PP___ jtwc_sh SH061955 -12.7000 166.400 -1 -12.6866 163.187 TC -12.6995 166.445 4 3 91
1955001S13163 1955 2 SP MM NOT_NAMED 1955-01-02 09:00:00 TS -12.6984 165.930 main 236 226 P________PP___ SH061955 -12.7000 166.700 -1 -12.7304 163.826 TC -12.6966 166.724 4 6 92
1955001S13163 1955 2 SP MM NOT_NAMED 1955-01-02 12:00:00 TS -12.7105 166.310 main 226 223 O________PO___ jtwc_sh SH061955 -12.7000 167.000 -1 -12.7760 164.459 TC -12.7000 167.000 4 7 92
1955001S13163 1955 2 SP MM NOT_NAMED 1955-01-02 15:00:00 TS -12.7229 166.691 main 224 224 P________PP___ SH061955 -12.6925 167.300 -1 -12.8246 165.085 TC -12.7132 167.255 4 7 93
1955001S13163 1955 2 SP MM NOT_NAMED 1955-01-02 18:00:00 TS -12.7468 167.075 main 230 219 O________PP___ jtwc_sh SH061955 -12.7000 167.600 -1 -12.8773 165.702 TC -12.7341 167.518 4 7 95
1955001S13163 1955 2 SP MM NOT_NAMED 1955-01-02 21:00:00 TS -12.7923 167.452 main 233 233 P________PP___ SH061955 -12.7423 167.870 -1 -12.9354 166.307 TC -12.7630 167.821 4 8 98
1955001S13163 1955 2 SP MM NOT_NAMED 1955-01-03 00:00:00 TS -12.8500 167.875 main 254 245 O________OO___ jtwc_sh SH061955 -12.8000 168.200 -1 -13.0000 166.900 TC 35 998 -12.8000 168.200 4 9 97
1955001S13163 1955 2 SP MM NOT_NAMED 1955-01-03 03:00:00 TS -12.9028 168.369 main 273 273 P________PP___ SH061955 -12.8499 168.648 -1 -13.0724 167.479 TC -12.8392 168.704 4 10 96
1955001S13163 1955 2 SP MM NOT_NAMED 1955-01-03 06:00:00 TS -12.9599 168.932 main 296 296 O________PP___ jtwc_sh SH061955 -12.9000 169.200 -1 -13.1538 168.046 TC -12.8856 169.283 4 12 96
1955001S13163 1955 2 SP MM NOT_NAMED 1955-01-03 09:00:00 TS -13.0212 169.550 main 342 342 P________PP___ SH061955 -12.9501 169.850 -1 -13.2456 168.605 TC -12.9391 169.895 4 12 96
1955001S13163 1955 2 SP MM NOT_NAMED 1955-01-03 12:00:00 TS -13.0872 170.165 main 396 396 O________PO___ jtwc_sh SH061955 -13.0000 170.500 -1 -13.3488 169.160 TC -13.0000 170.500 4 11 97
1955001S13163 1955 2 SP MM NOT_NAMED 1955-01-03 15:00:00 TS -13.1511 170.696 main 437 437 P________PP___ SH061955 -13.0422 171.015 -1 -13.4647 169.713 TC -13.0552 171.040 4 10 98
1955001S13163 1955 2 SP MM NOT_NAMED 1955-01-03 18:00:00 TS -13.2285 171.208 main 486 486 O________PP___ jtwc_sh SH061955 -13.1000 171.500 -1 -13.5944 170.268 TC -13.1194 171.565 4 10 100
1955001S13163 1955 2 SP MM NOT_NAMED 1955-01-03 21:00:00 TS -13.3308 171.753 main 541 541 P________PP___ SH061955 -13.1925 172.050 -1 -13.7392 170.830 TC -13.1989 172.083 4 11 102
1955001S13163 1955 2 SP MM NOT_NAMED 1955-01-04 00:00:00 TS -13.4500 172.300 main 582 576 O________OO___ jtwc_sh SH061955 -13.3000 172.600 -1 -13.9000 171.400 TC 40 995 -13.3000 172.600 4 11 102
1955001S13163 1955 2 SP MM NOT_NAMED 1955-01-04 03:00:00 TS -13.5597 172.864 main 625 611 P________PP___ SH061955 -13.3848 173.100 -1 -14.0771 172.080 TC -13.3922 173.178 4 11 103
1955001S13163 1955 2 SP MM NOT_NAMED 1955-01-04 06:00:00 TS -13.6954 173.432 main 611 550 O________PP___ jtwc_sh SH061955 -13.5000 173.600 -1 -14.2712 172.779 TC -13.5105 173.748 4 12 105
1955001S13163 1955 2 SP MM NOT_NAMED 1955-01-04 09:00:00 TS -13.8693 174.027 main 550 497 P________PP___ SH061955 -13.6626 174.180 -1 -14.4785 173.479 TC -13.6735 174.268 4 12 110
1955001S13163 1955 2 SP MM NOT_NAMED 1955-01-04 12:00:00 TS -14.0989 174.565 main 491 438 O________PO___ jtwc_sh SH061955 -13.9000 174.700 -1 -14.6956 174.159 TC -13.9000 174.700 4 11 119
1955001S13163 1955 2 SP MM NOT_NAMED 1955-01-04 15:00:00 TS -14.3963 174.991 main 438 391 P________PP___ SH061955 -14.2199 175.067 -1 -14.9193 174.802 TC -14.2260 175.026 4 10 132
1955001S13163 1955 2 SP MM NOT_NAMED 1955-01-04 18:00:00 TS -14.7396 175.311 main 391 343 O________PP___ jtwc_sh SH061955 -14.6000 175.300 -1 -15.1465 175.386 TC -14.6118 175.257 4 9 143
1955001S13163 1955 2 SP MM NOT_NAMED 1955-01-04 21:00:00 TS -15.1015 175.544 main 343 303 P________PP___ SH061955 -15.0074 175.438 -1 -15.3743 175.892 TC -15.0168 175.410 4 8 152
1955001S13163 1955 2 SP MM NOT_NAMED 1955-01-05 00:00:00 TS -15.4500 175.700 main 303 270 O________OO___ jtwc_sh SH061955 -15.4000 175.500 -1 -15.6000 176.300 TC 50 988 -15.4000 175.500 4 7 157
1955001S13163 1955 2 SP MM NOT_NAMED 1955-01-05 03:00:00 TS -15.7383 175.826 main 270 239 P________PP___ SH061955 -15.7225 175.573 -1 -15.7925 176.587 TC -15.7158 175.574 4 6 161
1955001S13163 1955 2 SP MM NOT_NAMED 1955-01-05 06:00:00 TS -15.9965 175.893 main 239 223 O________PP___ jtwc_sh SH061955 -16.0000 175.600 -1 -15.9839 176.780 TC -16.0023 175.590 4 5 173
1955001S13163 1955 2 SP MM NOT_NAMED 1955-01-05 09:00:00 TS -16.2426 175.899 main 223 201 P________PP___ SH061955 -16.2650 175.573 -1 -16.1776 176.891 TC -16.2627 175.561 4 5 185
1955001S13163 1955 2 SP MM NOT_NAMED 1955-01-05 12:00:00 TS -16.4693 175.858 main 201 197 O________PO___ jtwc_sh SH061955 -16.5000 175.500 -1 -16.3772 176.931 TC -16.5000 175.500 4 5 193
1955001S13163 1955 2 SP MM NOT_NAMED 1955-01-05 15:00:00 TS -16.6796 175.787 main 197 192 P________PP___ SH061955 -16.7075 175.408 -1 -16.5860 176.911 TC -16.7175 175.421 4 4 202
1955001S13163 1955 2 SP MM NOT_NAMED 1955-01-05 18:00:00 TS -16.8806 175.689 main 196 196 O________PP___ jtwc_sh SH061955 -16.9000 175.300 -1 -16.8072 176.841 TC -16.9151 175.315 4 5 206
1955001S13163 1955 2 SP MM NOT_NAMED 1955-01-05 21:00:00 TS -17.0835 175.580 main 197 196 P________PP___ SH061955 -17.0925 175.193 -1 -17.0441 176.734 TC -17.1050 175.202 4 5 206
1955001S13163 1955 2 SP MM NOT_NAMED 1955-01-06 00:00:00 TS -17.3000 175.475 main 196 192 O________OO___ jtwc_sh SH061955 -17.3000 175.100 -1 -17.3000 176.600 TC 60 980 -17.3000 175.100 4 5 200
1955001S13163 1955 2 SP MM NOT_NAMED 1955-01-06 03:00:00 TS -17.5595 175.405 main 195 191 P________PP___ SH061955 -17.5500 175.042 -1 -17.6121 176.492 TC -17.5259 175.044 4 5 194
1955001S13163 1955 2 SP MM NOT_NAMED 1955-01-06 06:00:00 TS -17.8260 175.336 main 202 200 O________PP___ jtwc_sh SH061955 -17.8000 175.000 -1 -17.9467 176.345 TC -17.7574 175.000 4 5 195
1955001S13163 1955 2 SP MM NOT_NAMED 1955-01-06 09:00:00 TS -18.0737 175.260 main 201 201 P________PP___ SH061955 -18.0075 174.957 -1 -18.2945 176.167 TC -17.9853 174.956 4 5 199
1955001S13163 1955 2 SP MM NOT_NAMED 1955-01-06 12:00:00 TS -18.3115 175.167 main 214 214 O________PO___ jtwc_sh SH061955 -18.2000 174.900 -1 -18.6459 175.966 TC -18.2000 174.900 4 5 203
1955001S13163 1955 2 SP MM NOT_NAMED 1955-01-06 15:00:00 TS -18.5520 175.048 main 241 241 P________PP___ SH061955 -18.4075 174.808 -1 -18.9915 175.751 TC -18.4015 174.827 4 5 207
1955001S13163 1955 2 SP MM NOT_NAMED 1955-01-06 18:00:00 TS -18.7773 174.917 main 258 258 O________PP___ jtwc_sh SH061955 -18.6000 174.700 -1 -19.3219 175.529 TC -18.5874 174.737 4 5 210
1955001S13163 1955 2 SP MM NOT_NAMED 1955-01-06 21:00:00 TS -18.9781 174.788 main 276 276 P________PP___ SH061955 -18.7650 174.607 -1 -19.6279 175.309 TC -18.7546 174.630 4 5 214
1955001S13163 1955 2 SP MM NOT_NAMED 1955-01-07 00:00:00 TS -19.1500 174.650 main 290 300 O________OO___ jtwc_sh SH061955 -18.9000 174.500 -1 -19.9000 175.100 TC 60 980 -18.9000 174.500 4 4 221
1955001S13163 1955 2 SP MM NOT_NAMED 1955-01-07 03:00:00 TS -19.2876 174.501 main 319 319 P________PP___ SH061955 -19.0075 174.365 -1 -20.1261 174.934 TC -19.0094 174.342 4 4 229
1955001S13163 1955 2 SP MM NOT_NAMED 1955-01-07 06:00:00 TS -19.4058 174.335 main 343 343 O________PP___ jtwc_sh SH061955 -19.1000 174.200 -1 -20.3230 174.773 TC -19.1001 174.165 4 4 236
1955001S13163 1955 2 SP MM NOT_NAMED 1955-01-07 09:00:00 TS -19.5133 174.150 main 367 367 P________PP___ SH061955 -19.1850 174.000 -1 -20.4926 174.619 TC -19.1907 173.980 4 4 237
1955001S13163 1955 2 SP MM NOT_NAMED 1955-01-07 12:00:00 TS -19.6342 173.967 main 381 381 O________PO___ jtwc_sh SH061955 -19.3000 173.800 -1 -20.6370 174.469 TC -19.3000 173.800 4 4 228
1955001S13163 1955 2 SP MM NOT_NAMED 1955-01-07 15:00:00 TS -19.8021 173.814 main 410 410 P________PP___ SH061955 -19.4925 173.643 -1 -20.7579 174.323 TC -19.4655 173.647 4 4 219
1955001S13163 1955 2 SP MM NOT_NAMED 1955-01-07 18:00:00 TS -19.9768 173.670 main 430 430 O________PP___ jtwc_sh SH061955 -19.7000 173.500 -1 -20.8575 174.180 TC -19.6499 173.500 4 4 220
1955001S13163 1955 2 SP MM NOT_NAMED 1955-01-07 21:00:00 TS -20.1254 173.523 main 454 454 P________PP___ SH061955 -19.8650 173.350 -1 -20.9375 174.039 TC -19.8343 173.353 4 4 225
1955001S13163 1955 2 SP MM NOT_NAMED 1955-01-08 00:00:00 TS -20.2500 173.375 main 469 469 O________OO___ jtwc_sh SH061955 -20.0000 173.200 -1 -21.0000 173.900 TC 55 985 -20.0000 173.200 4 4 232
1955001S13163 1955 2 SP MM NOT_NAMED 1955-01-08 03:00:00 TS -20.3420 173.228 main 492 492 P________PP___ SH061955 -20.1075 173.057 -1 -21.0395 173.774 TC -20.1135 173.024 4 3 240
1955001S13163 1955 2 SP MM NOT_NAMED 1955-01-08 06:00:00 TS -20.4158 173.074 main 507 507 O________PP___ jtwc_sh SH061955 -20.2000 172.900 -1 -21.0555 173.653 TC -20.2076 172.842 4 3 245
1955001S13163 1955 2 SP MM NOT_NAMED 1955-01-08 09:00:00 TS -20.4848 172.895 main 530 530 P________PP___ SH061955 -20.2925 172.693 -1 -21.0561 173.532 TC -20.2978 172.665 4 4 246
1955001S13163 1955 2 SP MM NOT_NAMED 1955-01-08 12:00:00 TS -20.5622 172.727 main 554 554 O________PO___ jtwc_sh SH061955 -20.4000 172.500 -1 -21.0489 173.408 TC -20.4000 172.500 4 3 236
1955001S13163 1955 2 SP MM NOT_NAMED 1955-01-08 15:00:00 TS -20.6676 172.608 main 569 569 P________PP___ SH061955 -20.5424 172.392 -1 -21.0419 173.276 TC -20.5436 172.373 4 3 224
1955001S13163 1955 2 SP MM NOT_NAMED 1955-01-08 18:00:00 TS -20.7857 172.498 main 583 576 O________PP___ jtwc_sh SH061955 -20.7000 172.300 -1 -21.0429 173.134 TC -20.6998 172.257 4 3 224
1955001S13163 1955 2 SP MM NOT_NAMED 1955-01-08 21:00:00 TS -20.9077 172.361 main 576 553 P________PP___ SH061955 -20.8575 172.165 -1 -21.0596 172.976 TC -20.8561 172.138 4 4 229
1955001S13163 1955 2 SP MM NOT_NAMED 1955-01-09 00:00:00 TS -21.0250 172.200 main 553 531 O________OO___ jtwc_sh SH061955 -21.0000 172.000 -1 -21.1000 172.800 TC 55 985 -21.0000 172.000 4 4 237
1955001S13163 1955 2 SP MM NOT_NAMED 1955-01-09 03:00:00 TS -21.1287 171.998 main 531 508 P________PP___ SH061955 -21.1075 171.807 -1 -21.1936 172.562 TC -21.1063 171.813 4 4 243
1955001S13163 1955 2 SP MM NOT_NAMED 1955-01-09 06:00:00 TS -21.2272 171.777 main 508 485 O________PP___ jtwc_sh SH061955 -21.2000 171.600 -1 -21.3086 172.301 TC -21.2001 171.607 4 5 244
1955001S13163 1955 2 SP MM NOT_NAMED 1955-01-09 09:00:00 TS -21.3298 171.553 main 485 452 P________PP___ SH061955 -21.2925 171.392 -1 -21.4403 172.028 TC -21.2938 171.398 4 5 242
1955001S13163 1955 2 SP MM NOT_NAMED 1955-01-09 12:00:00 TS -21.4461 171.338 main 452 438 O________PO___ jtwc_sh SH061955 -21.4000 171.200 -1 -21.5845 171.750 TC -21.4000 171.200 4 5 236
1955001S13163 1955 2 SP MM NOT_NAMED 1955-01-09 15:00:00 TS -21.5853 171.149 main 428 416 P________PP___ SH061955 -21.5425 171.042 -1 -21.7368 171.479 TC -21.5193 171.031 4 4 229
1955001S13163 1955 2 SP MM NOT_NAMED 1955-01-09 18:00:00 TS -21.7370 170.975 main 416 392 O________PP___ jtwc_sh SH061955 -21.7000 170.900 -1 -21.8930 171.223 TC -21.6549 170.877 4 4 227
1955001S13163 1955 2 SP MM NOT_NAMED 1955-01-09 21:00:00 TS -21.8829 170.807 main 392 381 P________PP___ SH061955 -21.8350 170.750 -1 -22.0487 170.994 TC -21.8131 170.735 4 4 224
1955001S13163 1955 2 SP MM NOT_NAMED 1955-01-10 00:00:00 TS -22.0500 170.650 main 381 359 O________OO___ jtwc_sh SH061955 -22.0000 170.600 -1 -22.2000 170.800 TC 50 986 -22.0000 170.600 4 5 217
1955001S13163 1955 2 SP MM NOT_NAMED 1955-01-10 03:00:00 TS -22.2628 170.495 main 359 349 P________PP___ SH061955 -22.2350 170.443 -1 -22.3435 170.649 TC -22.2375 170.444 4 5 211
1955001S13163 1955 2 SP MM NOT_NAMED 1955-01-10 06:00:00 TS -22.4949 170.359 main 350 339 O________PP___ jtwc_sh SH061955 -22.5000 170.300 -1 -22.4795 170.539 TC -22.5000 170.298 4 5 206
1955001S13163 1955 2 SP MM NOT_NAMED 1955-01-10 09:00:00 TS -22.7254 170.253 main 341 331 P________PP___ SH061955 -22.7650 170.185 -1 -22.6092 170.463 TC -22.7625 170.178 4 5 201
1955001S13163 1955 2 SP MM NOT_NAMED 1955-01-10 12:00:00 TS -22.9334 170.179 main 335 327 O________PO___ jtwc_sh SH061955 -23.0000 170.100 -1 -22.7336 170.416 TC -23.0000 170.100 4 4 198
1955001S13163 1955 2 SP MM NOT_NAMED 1955-01-10 15:00:00 TS -23.0886 170.123 main 330 330 P________PP___ SH061955 -23.1650 170.020 -1 -22.8538 170.391 TC -23.1705 170.061 4 3 194
1955001S13163 1955 2 SP MM NOT_NAMED 1955-01-10 18:00:00 TS -23.2381 170.095 main 333 333 O________PP___ jtwc_sh SH061955 -23.3000 170.000 -1 -22.9710 170.385 TC -23.3148 170.067 4 3 176
1955001S13163 1955 2 SP MM NOT_NAMED 1955-01-10 21:00:00 TS -23.3942 170.128 main 340 340 P________PP___ SH061955 -23.4425 170.070 -1 -23.0860 170.389 TC -23.4518 170.115 4 4 161
1955001S13163 1955 2 SP MM NOT_NAMED 1955-01-11 00:00:00 TS -23.5692 170.215 main 358 358 O________OO___ jtwc_sh SH061955 -23.6000 170.200 -1 -23.2000 170.400 TC 50 988 -23.6000 170.200 4 4 154
1955001S13163 1955 2 SP MM NOT_NAMED 1955-01-11 03:00:00 TS -23.7930 170.337 main 376 376 P_________P___ SH061955 -23.7925 170.342 -1 TC -23.7939 170.326 4 5 149
1955001S13163 1955 2 SP MM NOT_NAMED 1955-01-11 06:00:00 TS -24.0001 170.495 main 405 405 O_________P___ jtwc_sh SH061955 -24.0000 170.500 -1 TC -24.0002 170.485 4 5 144
1955001S13163 1955 2 SP MM NOT_NAMED 1955-01-11 09:00:00 TS -24.2071 170.660 main 433 433 P_________P___ SH061955 -24.2075 170.665 -1 TC -24.2064 170.651 4 5 145
1955001S13163 1955 2 SP MM NOT_NAMED 1955-01-11 12:00:00 TS -24.4000 170.800 main 453 453 O_________O___ jtwc_sh SH061955 -24.4000 170.800 -1 TC -24.4000 170.800 4 4 152
1955001S13163 1955 2 SP MM NOT_NAMED 1955-01-11 15:00:00 TS -24.5543 170.865 main 473 473 P_________P___ SH061955 -24.5575 170.858 -1 TC -24.5480 170.881 4 3 160
1955001S13163 1955 2 SP MM NOT_NAMED 1955-01-11 18:00:00 TS -24.6949 170.914 main 479 479 O_________P___ jtwc_sh SH061955 -24.7000 170.900 -1 TC -24.6848 170.943 4 3 157
1955001S13163 1955 2 SP MM NOT_NAMED 1955-01-11 21:00:00 TS -24.8331 170.993 main 494 494 P_________P___ SH061955 -24.8350 170.985 -1 TC -24.8292 171.009 4 3 151
1955001S13163 1955 2 SP MM NOT_NAMED 1955-01-12 00:00:00 TS -25.0000 171.100 main 514 514 O_________O___ jtwc_sh SH061955 -25.0000 171.100 -1 -25.0000 171.100 4 5 150
1955001S13163 1955 2 SP MM NOT_NAMED 1955-01-12 03:00:00 TS -25.2318 171.245 main 536 536 P_________P___ SH061955 -25.2350 171.235 -1 -25.2255 171.266 4 6 150
1955001S13163 1955 2 SP MM NOT_NAMED 1955-01-12 06:00:00 TS -25.4926 171.419 main 572 572 O_________P___ jtwc_sh SH061955 -25.5000 171.400 -1 -25.4778 171.457 4 6 147
1955001S13163 1955 2 SP MM NOT_NAMED 1955-01-12 09:00:00 TS -25.7521 171.620 main 608 608 P_________P___ SH061955 -25.7576 171.607 -1 -25.7411 171.644 4 6 146
1955001S13163 1955 2 SP MM NOT_NAMED 1955-01-12 12:00:00 TS -26.0000 171.800 main 638 638 O_________O___ jtwc_sh SH061955 -26.0000 171.800 -1 -26.0000 171.800 4 5 149
1955001S13163 1955 2 SP MM NOT_NAMED 1955-01-12 15:00:00 TS -26.2107 171.921 main 660 660 P_________P___ SH061955 -26.2000 171.930 -1 -26.2321 171.902 4 5 158
1955001S13163 1955 2 SP MM NOT_NAMED 1955-01-12 18:00:00 TS -26.4191 171.989 main 682 682 O_________P___ jtwc_sh SH061955 -26.4000 172.000 -1 -26.4573 171.968 4 5 169
1955001S13163 1955 2 SP MM NOT_NAMED 1955-01-12 21:00:00 TS -26.6596 172.015 main 704 704 P_________P___ SH061955 -26.6500 172.023 -1 -26.6790 171.999 4 5 178
1955001S13163 1955 2 SP MM NOT_NAMED 1955-01-13 00:00:00 TS -26.9000 172.000 main 719 719 O_________O___ jtwc_sh SH061955 -26.9000 172.000 -1 -26.9000 172.000 4 5 186
1955001S13163 1955 2 SP MM NOT_NAMED 1955-01-13 03:00:00 TS -27.1083 171.962 main 735 735 P_________P___ SH061955 -27.1000 171.958 -1 -27.1250 171.971 4 4 192
1955001S13163 1955 2 SP MM NOT_NAMED 1955-01-13 06:00:00 TS -27.3167 171.905 main 744 744 O_________P___ jtwc_sh SH061955 -27.3000 171.900 -1 -27.3500 171.915 4 5 193
1955001S13163 1955 2 SP MM NOT_NAMED 1955-01-13 09:00:00 TS -27.5583 171.846 main 762 751 P_________P___ SH061955 -27.5500 171.843 -1 -27.5750 171.852 4 5 191
1955001S13163 1955 2 SP MM NOT_NAMED 1955-01-13 12:00:00 TS -27.8000 171.800 main 751 729 O_________O___ jtwc_sh SH061955 -27.8000 171.800 -1 -27.8000 171.800 4 5 185
1955001S13163 1955 2 SP MM NOT_NAMED 1955-01-13 15:00:00 TS -28.0110 171.791 main 729 706 P_________P___ SH061955 -28.0000 171.792 -1 -28.0331 171.789 4 4 183
1955001S13163 1955 2 SP MM NOT_NAMED 1955-01-13 18:00:00 TS -28.2217 171.797 main 706 684 O_________P___ jtwc_sh SH061955 -28.2000 171.800 -1 -28.2650 171.792 4 5 177
1955001S13163 1955 2 SP MM NOT_NAMED 1955-01-13 21:00:00 TS -28.4631 171.805 main 673 651 P_________P___ SH061955 -28.4500 171.807 -1 -28.4894 171.799 4 5 0
1955001S13163 1955 2 SP MM NOT_NAMED 1955-01-14 00:00:00 TS -28.7000 171.800 main 651 629 O_________O___ jtwc_sh SH061955 -28.7000 171.800 -1 -28.7000 171.800 4 4 184
1955001S13163 1955 2 SP MM NOT_NAMED 1955-01-14 03:00:00 TS -28.9078 171.758 main 629 608 P_________P___ SH061955 -28.9150 171.750 -1 -28.8934 171.774 4 4 192
1955001S13163 1955 2 SP MM NOT_NAMED 1955-01-14 06:00:00 TS -29.0908 171.714 main 608 597 O_________P___ jtwc_sh SH061955 -29.1000 171.700 -1 -29.0725 171.743 4 3 190
1955001S13163 1955 2 SP MM NOT_NAMED 1955-01-14 09:00:00 TS -29.2518 171.700 main 586 575 P_________P___ SH061955 -29.2575 171.692 -1 -29.2403 171.715 4 3 0
1955001S13163 1955 2 SP MM NOT_NAMED 1955-01-14 12:00:00 TS -29.4000 171.700 main 575 564 O_________O___ jtwc_sh SH061955 -29.4000 171.700 -1 -29.4000 171.700 4 3 0
1955001S13163 1955 2 SP MM NOT_NAMED 1955-01-14 15:00:00 TS -29.5515 171.697 main 553 542 P_________P___ SH061955 -29.5500 171.693 -1 -29.5544 171.705 4 3 0
1955001S13163 1955 2 SP MM NOT_NAMED 1955-01-14 18:00:00 TS -29.7017 171.709 main 542 530 O_________P___ jtwc_sh SH061955 -29.7000 171.700 -1 -29.7050 171.727 4 3 174
1955001S13163 1955 2 SP MM NOT_NAMED 1955-01-14 21:00:00 TS -29.8511 171.747 main 519 507 P_________P___ SH061955 -29.8500 171.740 -1 -29.8531 171.761 4 3 165
1955001S13163 1955 2 SP MM NOT_NAMED 1955-01-15 00:00:00 TS -30.0000 171.800 main 507 O_________O___ jtwc_sh SH061955 -30.0000 171.800 -1 -30.0000 171.800 4 3 166

デジタル台風データ・検索

IBTrACS Databaseについて

本データベースは、米国NOAAが公開する1842年以降の世界の熱帯低気圧のベストトラックデータアーカイブInternational Best Track Archive for Climate Stewardship (IBTrACS)を、ウェブで閲覧しやすい形式に変換したものです。

最終更新日:2021-12-01